Terminal Aerodrome Forecast
Issued by NWS

Home | Current Version | Previous Version | Text Only | Print | Product List | Glossary On
Versions: 1 2 3 4 5 6 7 8 9 10 11 12 13 14 15 16 17 18 19 20 21 22 23 24 25 26 27 28 29 30 31 32 33 34 35 36 37
000
FTUS41 KBOX 020522
TAFBED
TAF
KBED 020522Z 0206/0306 02009KT 3SM -RA BR OVC008
     FM021500 03009KT P6SM OVC015
     FM021800 02010KT P6SM BKN025
     FM021900 03010KT P6SM BKN050
     FM030000 05006KT P6SM SCT250=

USA.gov is the U.S. government's official web portal to all federal, state and local government web resources and services.